KACT/ACT METAR and TAF weather

Enter ICAO airport designator
Station Type Date Time Source
KACT METAR 2023/02/05 22:51 UTC NOAA

KACT 052251Z 16009KT 10SM CLR 21/09 A3009 RMK AO2 SLP187 T02060094 $


Station Type Date Time Source
KACT Decoded METAR 2023/02/05 22:51 UTC NOAA

WACO REGIONAL AIRPORT, TX, United States (KACT) 31-36N 97-13W 151M
Feb 05, 2023 - 05:51 PM EST / 2023.02.05 2251 UTC
Wind: from the SSE (160 degrees) at 10 MPH (9 KT):0
Visibility: 10 mile(s):0
Sky conditions: clear
Temperature: 69.1 F (20.6 C)
Dew Point: 48.9 F (9.4 C)
Relative Humidity: 48%
Pressure (altimeter): 30.09 in. Hg (1018 hPa)
ob: KACT 052251Z 16009KT 10SM CLR 21/09 A3009 RMK AO2 SLP187 T02060094
cycle: 23

Station Type Date Time Source
KACT TAF 2023/02/05 21:57 UTC NOAA

TAF
AMD KACT 052055Z 0521/0618 18009KT P6SM SKC
FM061100 18011KT 4SM BR BKN005
FM061700 18017KT P6SM BKN014

Example: see airport list